Time;durP1;ratioP1;P1;durP2;ratioP2;P2;SDS_P1;SDS_P2;PMS_P1;PMS_P2;Temp;Humidity;BMP_temperature;BMP_pressure;BME280_temperature;BME280_humidity;BME280_pressure;Samples;Min_cycle;Max_cycle;Signal;HPM_P1;HPM_P2
2023/07/20 00:00:33;;;;;;;16.20;2.85;;;;;;;;;;5014425;28;20081;-60
2023/07/20 00:03:25;;;;;;;20.30;2.63;;;;;;;;;;5012362;28;20124;-61
2023/07/20 00:05:55;;;;;;;19.45;3.00;;;;;;;;;;5019756;28;20026;-60
2023/07/20 00:08:22;;;;;;;20.15;3.08;;;;;;;;;;5017054;28;20026;-60
2023/07/20 00:10:49;;;;;;;20.98;2.60;;;;;;;;;;5034540;28;20091;-60
2023/07/20 00:13:18;;;;;;;11.48;2.55;;;;;;;;;;5013376;28;20022;-61
2023/07/20 00:15:45;;;;;;;23.70;2.80;;;;;;;;;;5014618;28;20033;-60
2023/07/20 00:18:13;;;;;;;13.45;2.90;;;;;;;;;;5014219;28;20088;-60
2023/07/20 00:20:40;;;;;;;24.25;3.10;;;;;;;;;;5023063;28;20036;-60
2023/07/20 00:23:07;;;;;;;16.48;2.90;;;;;;;;;;5031947;28;20083;-60
2023/07/20 00:25:35;;;;;;;25.60;3.40;;;;;;;;;;5029443;28;20176;-60
2023/07/20 00:28:02;;;;;;;14.98;2.70;;;;;;;;;;5025027;28;20403;-60
2023/07/20 00:30:29;;;;;;;15.07;2.63;;;;;;;;;;5014677;28;20048;-60
2023/07/20 00:32:56;;;;;;;20.88;3.25;;;;;;;;;;5014214;28;20423;-60
2023/07/20 00:35:23;;;;;;;11.57;2.30;;;;;;;;;;5014284;28;20037;-60
2023/07/20 00:37:50;;;;;;;18.77;2.70;;;;;;;;;;5026802;28;20506;-59
2023/07/20 00:40:17;;;;;;;14.65;3.05;;;;;;;;;;5016202;28;20037;-59
2023/07/20 00:42:45;;;;;;;17.58;5.65;;;;;;;;;;5034175;28;20025;-59
2023/07/20 00:45:11;;;;;;;37.13;14.75;;;;;;;;;;5034037;28;20100;-59
2023/07/20 00:47:39;;;;;;;52.03;26.58;;;;;;;;;;5033537;28;20475;-59
2023/07/20 00:50:06;;;;;;;62.70;39.15;;;;;;;;;;5034090;28;20504;-60
2023/07/20 00:52:34;;;;;;;90.97;50.40;;;;;;;;;;5016625;28;20056;-59
2023/07/20 00:55:01;;;;;;;104.28;62.00;;;;;;;;;;5032726;28;20128;-60
2023/07/20 00:57:29;;;;;;;103.38;67.57;;;;;;;;;;5025331;28;20029;-59
2023/07/20 00:59:56;;;;;;;115.40;70.25;;;;;;;;;;5027790;28;20434;-60
2023/07/20 01:02:23;;;;;;;108.38;70.00;;;;;;;;;;5026808;28;20527;-59
2023/07/20 01:04:50;;;;;;;106.65;65.30;;;;;;;;;;5010071;28;20123;-60
2023/07/20 01:07:38;;;;;;;99.90;63.35;;;;;;;;;;5033189;28;20025;-60
2023/07/20 01:10:11;;;;;;;96.97;59.63;;;;;;;;;;5025651;28;20044;-60
2023/07/20 01:12:47;;;;;;;87.43;55.83;;;;;;;;;;5015989;28;20029;-59
2023/07/20 01:15:15;;;;;;;80.72;50.15;;;;;;;;;;5019598;28;20046;-59
2023/07/20 01:17:42;;;;;;;81.38;48.60;;;;;;;;;;5013421;28;20464;-60
2023/07/20 01:20:10;;;;;;;75.60;48.47;;;;;;;;;;5025642;28;20026;-59
2023/07/20 01:22:47;;;;;;;82.45;48.22;;;;;;;;;;5024917;28;20039;-59
2023/07/20 01:25:14;;;;;;;78.32;47.45;;;;;;;;;;5033243;28;20044;-59
2023/07/20 01:27:41;;;;;;;67.80;44.05;;;;;;;;;;5029275;28;20440;-60
2023/07/20 01:30:26;;;;;;;73.03;44.03;;;;;;;;;;5032686;28;20475;-59
2023/07/20 01:32:56;;;;;;;76.85;44.60;;;;;;;;;;5031548;28;20045;-59
2023/07/20 01:35:25;;;;;;;69.07;43.55;;;;;;;;;;5023285;28;20095;-60
2023/07/20 01:37:53;;;;;;;65.40;42.15;;;;;;;;;;5030886;28;20022;-59
2023/07/20 01:40:21;;;;;;;68.93;42.65;;;;;;;;;;5031509;28;20076;-60
2023/07/20 01:42:48;;;;;;;63.60;40.70;;;;;;;;;;5030030;28;20047;-59
2023/07/20 01:45:16;;;;;;;65.85;38.75;;;;;;;;;;5032122;28;20104;-59
2023/07/20 01:47:43;;;;;;;60.47;33.50;;;;;;;;;;5031892;28;20025;-60
2023/07/20 01:50:10;;;;;;;61.60;31.02;;;;;;;;;;5032344;28;20028;-59
2023/07/20 01:52:37;;;;;;;44.83;28.13;;;;;;;;;;5030568;28;20026;-60
2023/07/20 01:55:05;;;;;;;47.13;26.92;;;;;;;;;;5032098;28;20098;-59
2023/07/20 01:57:32;;;;;;;51.88;24.73;;;;;;;;;;5026584;28;20384;-60
2023/07/20 01:59:59;;;;;;;45.08;23.65;;;;;;;;;;5016979;28;20033;-61
2023/07/20 02:02:30;;;;;;;42.35;22.02;;;;;;;;;;5012379;28;20033;-60
2023/07/20 02:04:58;;;;;;;31.67;18.50;;;;;;;;;;5012312;28;20053;-60
2023/07/20 02:07:25;;;;;;;29.67;15.88;;;;;;;;;;5010892;28;20037;-60
2023/07/20 02:09:52;;;;;;;33.60;15.43;;;;;;;;;;5012691;28;20101;-60
2023/07/20 02:12:19;;;;;;;30.92;14.95;;;;;;;;;;5012587;28;20034;-60
2023/07/20 02:14:47;;;;;;;31.63;13.88;;;;;;;;;;5012371;28;20029;-60
2023/07/20 02:17:14;;;;;;;25.88;12.98;;;;;;;;;;5012113;28;20029;-60
2023/07/20 02:19:42;;;;;;;21.63;11.75;;;;;;;;;;5012700;28;20475;-60
2023/07/20 02:22:09;;;;;;;23.05;12.43;;;;;;;;;;5012499;28;20036;-60
2023/07/20 02:24:36;;;;;;;18.70;10.73;;;;;;;;;;5012512;28;20034;-60
2023/07/20 02:27:03;;;;;;;21.08;11.13;;;;;;;;;;5012067;28;20037;-60
2023/07/20 02:29:30;;;;;;;15.95;9.55;;;;;;;;;;5012263;28;20034;-60
2023/07/20 02:31:57;;;;;;;20.75;10.15;;;;;;;;;;5021254;28;20026;-60
2023/07/20 02:34:24;;;;;;;18.10;9.88;;;;;;;;;;5012220;28;20539;-60
2023/07/20 02:36:51;;;;;;;16.63;8.80;;;;;;;;;;5011769;28;20040;-60
2023/07/20 02:39:18;;;;;;;17.30;8.93;;;;;;;;;;5024606;28;20551;-60
2023/07/20 02:41:45;;;;;;;21.42;8.48;;;;;;;;;;4994437;28;20025;-60
2023/07/20 02:44:12;;;;;;;15.52;7.82;;;;;;;;;;5011735;28;20096;-60
2023/07/20 02:46:39;;;;;;;18.73;7.35;;;;;;;;;;5018989;28;20021;-61
2023/07/20 02:49:07;;;;;;;15.63;7.68;;;;;;;;;;5031511;28;20043;-60
2023/07/20 02:51:34;;;;;;;19.63;7.45;;;;;;;;;;5031690;28;20364;-61
2023/07/20 02:54:01;;;;;;;15.57;7.20;;;;;;;;;;5031555;28;20064;-60
2023/07/20 02:56:28;;;;;;;15.65;6.97;;;;;;;;;;5023829;28;20154;-60
2023/07/20 02:58:55;;;;;;;14.02;6.32;;;;;;;;;;5026148;28;20099;-60
2023/07/20 03:01:22;;;;;;;11.68;5.82;;;;;;;;;;5021842;28;20033;-60
2023/07/20 03:03:49;;;;;;;13.23;6.15;;;;;;;;;;5028809;28;20033;-60
2023/07/20 03:06:17;;;;;;;11.20;5.68;;;;;;;;;;5027624;28;20079;-60
2023/07/20 03:08:47;;;;;;;14.23;6.10;;;;;;;;;;5013908;28;20084;-60
2023/07/20 03:11:15;;;;;;;12.68;5.55;;;;;;;;;;5031393;28;20387;-60
2023/07/20 03:13:45;;;;;;;15.20;4.85;;;;;;;;;;5031555;28;20046;-60
2023/07/20 03:16:15;;;;;;;10.63;4.60;;;;;;;;;;5031271;28;20053;-60
2023/07/20 03:18:42;;;;;;;10.55;4.20;;;;;;;;;;5030586;28;20048;-60
2023/07/20 03:21:11;;;;;;;9.70;4.38;;;;;;;;;;5031303;28;20033;-60
2023/07/20 03:23:39;;;;;;;9.50;4.03;;;;;;;;;;5031118;28;20033;-61
2023/07/20 03:26:08;;;;;;;8.55;3.92;;;;;;;;;;5030896;28;20025;-61
2023/07/20 03:28:38;;;;;;;10.63;4.10;;;;;;;;;;5031137;28;20037;-60
2023/07/20 03:31:06;;;;;;;9.50;4.38;;;;;;;;;;5026436;28;20030;-60
2023/07/20 03:33:33;;;;;;;10.23;4.20;;;;;;;;;;5024988;28;20053;-60
2023/07/20 03:36:01;;;;;;;7.13;3.85;;;;;;;;;;5030767;28;20095;-60
2023/07/20 03:38:28;;;;;;;9.25;3.88;;;;;;;;;;5031081;28;20032;-61
2023/07/20 03:40:59;;;;;;;10.48;3.35;;;;;;;;;;5030177;28;20026;-60
2023/07/20 03:43:26;;;;;;;5.32;3.38;;;;;;;;;;5013272;28;20048;-60
2023/07/20 03:45:54;;;;;;;9.80;3.28;;;;;;;;;;5030305;28;20427;-60
2023/07/20 03:48:22;;;;;;;6.18;3.10;;;;;;;;;;5031259;28;20494;-60
2023/07/20 03:50:49;;;;;;;6.45;2.90;;;;;;;;;;5031279;28;20021;-60
2023/07/20 03:53:17;;;;;;;6.20;2.88;;;;;;;;;;5030446;28;20029;-61
2023/07/20 03:55:47;;;;;;;5.15;2.75;;;;;;;;;;5030667;28;20026;-60
2023/07/20 03:58:15;;;;;;;7.03;2.88;;;;;;;;;;5031144;28;20553;-60
2023/07/20 04:00:46;;;;;;;7.43;2.72;;;;;;;;;;5028873;28;20491;-60
2023/07/20 04:03:13;;;;;;;5.78;2.47;;;;;;;;;;5019993;28;20033;-60
2023/07/20 04:05:40;;;;;;;8.93;3.38;;;;;;;;;;5029403;28;20079;-60
2023/07/20 04:08:07;;;;;;;9.52;3.05;;;;;;;;;;5031000;28;20483;-60
2023/07/20 04:10:35;;;;;;;8.10;2.63;;;;;;;;;;5030847;28;20501;-60
2023/07/20 04:13:02;;;;;;;8.07;2.58;;;;;;;;;;5031019;28;20442;-60
2023/07/20 04:15:29;;;;;;;7.20;2.55;;;;;;;;;;5030892;28;20467;-60
2023/07/20 04:17:56;;;;;;;7.28;2.38;;;;;;;;;;5030970;28;20173;-60
2023/07/20 04:20:24;;;;;;;6.28;2.35;;;;;;;;;;5030528;28;20038;-61
2023/07/20 04:22:51;;;;;;;6.63;2.30;;;;;;;;;;5030594;28;20537;-60
2023/07/20 04:25:18;;;;;;;4.07;2.10;;;;;;;;;;5030572;28;20053;-61
2023/07/20 04:27:46;;;;;;;3.80;2.08;;;;;;;;;;5030770;28;20368;-60
2023/07/20 04:30:15;;;;;;;7.03;2.40;;;;;;;;;;5015549;28;20072;-60
2023/07/20 04:32:45;;;;;;;7.78;2.00;;;;;;;;;;5025733;28;20519;-60
2023/07/20 04:35:18;;;;;;;4.22;2.08;;;;;;;;;;5026976;28;20053;-61
2023/07/20 04:37:46;;;;;;;4.22;2.00;;;;;;;;;;5020855;28;20480;-60
2023/07/20 04:40:16;;;;;;;5.18;2.03;;;;;;;;;;5033180;28;20045;-60
2023/07/20 04:42:43;;;;;;;5.45;1.60;;;;;;;;;;5034302;28;20095;-60
2023/07/20 04:45:11;;;;;;;2.58;1.60;;;;;;;;;;5034381;28;20472;-60
2023/07/20 04:47:37;;;;;;;4.38;2.03;;;;;;;;;;5033340;28;20506;-60
2023/07/20 04:50:05;;;;;;;9.43;2.15;;;;;;;;;;5016472;28;20552;-60
2023/07/20 04:52:32;;;;;;;5.22;1.83;;;;;;;;;;5034413;28;20017;-61
2023/07/20 04:54:59;;;;;;;3.80;1.50;;;;;;;;;;5034199;28;20032;-60
2023/07/20 04:57:26;;;;;;;4.38;1.80;;;;;;;;;;5034336;28;20113;-60
2023/07/20 04:59:53;;;;;;;3.67;1.83;;;;;;;;;;5034321;28;20037;-60
2023/07/20 05:02:20;;;;;;;5.68;1.80;;;;;;;;;;5034207;28;20030;-60
2023/07/20 05:04:47;;;;;;;3.78;1.63;;;;;;;;;;5034099;28;20026;-60
2023/07/20 05:07:14;;;;;;;6.50;1.70;;;;;;;;;;5034157;28;20395;-60
2023/07/20 05:09:41;;;;;;;3.15;1.30;;;;;;;;;;5034063;28;20091;-60
2023/07/20 05:12:08;;;;;;;4.55;1.50;;;;;;;;;;5034148;28;20040;-60
2023/07/20 05:14:35;;;;;;;7.03;1.70;;;;;;;;;;5033921;28;20029;-60
2023/07/20 05:17:02;;;;;;;3.97;1.50;;;;;;;;;;5033895;28;20034;-60
2023/07/20 05:19:29;;;;;;;3.28;1.50;;;;;;;;;;5033971;28;20055;-60
2023/07/20 05:21:56;;;;;;;4.30;1.45;;;;;;;;;;5033896;28;20080;-60
2023/07/20 05:24:23;;;;;;;6.68;1.60;;;;;;;;;;5033769;28;20088;-60
2023/07/20 05:26:50;;;;;;;6.60;1.58;;;;;;;;;;5033823;28;20423;-60
2023/07/20 05:29:17;;;;;;;4.15;1.40;;;;;;;;;;5033746;28;20032;-60
2023/07/20 05:31:44;;;;;;;3.58;1.33;;;;;;;;;;5033427;28;20091;-61
2023/07/20 05:34:11;;;;;;;3.67;1.48;;;;;;;;;;5033389;28;20029;-60
2023/07/20 05:36:38;;;;;;;3.20;1.58;;;;;;;;;;5033684;28;20030;-60
2023/07/20 05:39:06;;;;;;;4.72;1.17;;;;;;;;;;5033510;28;20049;-60
2023/07/20 05:41:33;;;;;;;2.85;1.35;;;;;;;;;;5033070;28;20116;-60
2023/07/20 05:44:00;;;;;;;3.35;1.25;;;;;;;;;;5033471;28;20034;-60
2023/07/20 05:46:27;;;;;;;6.15;1.30;;;;;;;;;;5033424;28;20102;-60
2023/07/20 05:48:54;;;;;;;4.68;1.10;;;;;;;;;;5033252;28;20552;-60
2023/07/20 05:51:21;;;;;;;2.47;1.30;;;;;;;;;;5033359;28;20071;-60
2023/07/20 05:53:48;;;;;;;3.35;0.98;;;;;;;;;;5033281;28;20037;-60
2023/07/20 05:56:15;;;;;;;2.53;1.20;;;;;;;;;;5033177;28;20057;-60
2023/07/20 05:58:42;;;;;;;2.15;1.30;;;;;;;;;;5033227;28;20655;-60
2023/07/20 06:01:09;;;;;;;2.47;1.15;;;;;;;;;;5031579;28;20037;-60
2023/07/20 06:03:37;;;;;;;2.15;1.00;;;;;;;;;;5033067;28;20024;-60
2023/07/20 06:06:05;;;;;;;2.72;1.23;;;;;;;;;;5015071;28;20491;-60
2023/07/20 06:08:32;;;;;;;3.00;1.15;;;;;;;;;;5032927;28;20052;-60
2023/07/20 06:10:59;;;;;;;1.88;1.10;;;;;;;;;;5032936;28;20029;-60
2023/07/20 06:13:26;;;;;;;3.13;1.13;;;;;;;;;;5032830;28;20032;-60
2023/07/20 06:15:55;;;;;;;2.60;0.95;;;;;;;;;;5032724;28;20037;-60
2023/07/20 06:18:24;;;;;;;1.67;0.90;;;;;;;;;;5032717;28;20492;-60
2023/07/20 06:20:51;;;;;;;2.75;1.40;;;;;;;;;;5032735;28;20044;-60
2023/07/20 06:23:21;;;;;;;2.83;1.23;;;;;;;;;;5032792;28;20033;-60
2023/07/20 06:25:48;;;;;;;3.47;1.15;;;;;;;;;;5032374;28;20033;-60
2023/07/20 06:28:15;;;;;;;2.47;1.10;;;;;;;;;;5032521;28;20031;-60
2023/07/20 06:30:42;;;;;;;4.82;1.00;;;;;;;;;;5032472;28;20484;-60
2023/07/20 06:33:09;;;;;;;2.75;1.35;;;;;;;;;;5032294;28;20041;-60
2023/07/20 06:35:36;;;;;;;1.52;0.82;;;;;;;;;;5032342;28;20045;-60
2023/07/20 06:38:03;;;;;;;2.63;0.90;;;;;;;;;;5032474;28;20025;-60
2023/07/20 06:40:31;;;;;;;4.40;1.10;;;;;;;;;;5032463;28;20047;-60
2023/07/20 06:42:58;;;;;;;1.80;0.90;;;;;;;;;;5032364;28;20052;-60
2023/07/20 06:45:25;;;;;;;3.17;1.40;;;;;;;;;;5032003;28;20033;-60
2023/07/20 06:47:52;;;;;;;3.30;0.90;;;;;;;;;;5032275;28;20025;-60
2023/07/20 06:50:19;;;;;;;5.53;1.10;;;;;;;;;;5032143;28;20038;-60
2023/07/20 06:52:47;;;;;;;6.38;1.70;;;;;;;;;;5031613;28;20079;-60
2023/07/20 06:55:15;;;;;;;2.45;0.90;;;;;;;;;;5031789;28;20045;-60
2023/07/20 06:57:42;;;;;;;3.20;1.00;;;;;;;;;;5031936;28;20038;-60
2023/07/20 07:00:09;;;;;;;3.03;1.20;;;;;;;;;;5031957;28;20061;-60
2023/07/20 07:02:40;;;;;;;1.52;0.90;;;;;;;;;;5031946;28;20030;-60
2023/07/20 07:05:07;;;;;;;3.05;0.80;;;;;;;;;;5031708;28;20094;-61
2023/07/20 07:07:34;;;;;;;2.90;1.25;;;;;;;;;;5031983;28;20155;-60
2023/07/20 07:10:01;;;;;;;2.50;0.80;;;;;;;;;;5031912;28;20029;-60
2023/07/20 07:12:28;;;;;;;2.50;1.02;;;;;;;;;;5031866;28;20037;-60
2023/07/20 07:14:55;;;;;;;2.35;1.17;;;;;;;;;;5031630;28;20045;-60
2023/07/20 07:17:22;;;;;;;2.63;0.85;;;;;;;;;;5031871;28;20026;-60
2023/07/20 07:19:49;;;;;;;4.05;1.00;;;;;;;;;;5031803;28;20431;-60
2023/07/20 07:22:16;;;;;;;1.63;0.90;;;;;;;;;;5031783;28;20466;-60
2023/07/20 07:24:43;;;;;;;1.85;0.95;;;;;;;;;;5031630;28;20037;-60
2023/07/20 07:27:10;;;;;;;2.00;1.02;;;;;;;;;;5031725;28;20029;-60
2023/07/20 07:29:37;;;;;;;2.35;0.90;;;;;;;;;;5031689;28;20121;-60
2023/07/20 07:32:04;;;;;;;1.85;0.88;;;;;;;;;;5031489;28;20125;-60
2023/07/20 07:34:34;;;;;;;2.90;1.00;;;;;;;;;;5031459;28;20099;-60
2023/07/20 07:37:01;;;;;;;1.77;0.90;;;;;;;;;;5031856;28;20029;-60
2023/07/20 07:39:30;;;;;;;1.67;0.90;;;;;;;;;;5031540;28;20034;-60
2023/07/20 07:41:57;;;;;;;3.22;1.08;;;;;;;;;;5031439;28;20057;-60
2023/07/20 07:44:24;;;;;;;4.38;1.10;;;;;;;;;;5031384;28;20033;-60
2023/07/20 07:46:51;;;;;;;1.38;0.80;;;;;;;;;;5031595;28;20079;-60
2023/07/20 07:49:19;;;;;;;2.85;1.10;;;;;;;;;;5031527;28;20022;-60
2023/07/20 07:51:46;;;;;;;1.92;0.77;;;;;;;;;;5031296;28;20108;-60
2023/07/20 07:54:13;;;;;;;2.22;1.10;;;;;;;;;;5031310;28;20049;-60
2023/07/20 07:56:40;;;;;;;1.83;0.80;;;;;;;;;;5031490;28;20112;-60
2023/07/20 07:59:07;;;;;;;2.75;1.05;;;;;;;;;;5031298;28;20570;-60
2023/07/20 08:01:34;;;;;;;2.20;0.80;;;;;;;;;;5031266;28;20490;-60
2023/07/20 08:04:01;;;;;;;1.40;0.80;;;;;;;;;;5033448;28;20431;-60
2023/07/20 08:06:28;;;;;;;2.70;1.05;;;;;;;;;;5035315;28;20487;-60
2023/07/20 08:08:55;;;;;;;2.53;0.80;;;;;;;;;;5035322;28;20048;-60
2023/07/20 08:11:22;;;;;;;1.98;0.90;;;;;;;;;;5035123;28;20033;-60
2023/07/20 08:13:49;;;;;;;1.63;0.80;;;;;;;;;;5034987;28;20395;-60
2023/07/20 08:16:16;;;;;;;3.67;1.00;;;;;;;;;;5035133;28;20033;-60
2023/07/20 08:18:45;;;;;;;1.27;0.80;;;;;;;;;;5035115;28;20057;-60
2023/07/20 08:21:12;;;;;;;2.13;0.80;;;;;;;;;;5035068;28;20026;-60
2023/07/20 08:23:39;;;;;;;2.03;1.00;;;;;;;;;;5035014;28;20057;-60
2023/07/20 08:26:06;;;;;;;2.45;1.00;;;;;;;;;;5034775;28;20029;-60
2023/07/20 08:28:33;;;;;;;2.10;1.05;;;;;;;;;;5034743;28;20025;-60
2023/07/20 08:31:00;;;;;;;5.05;0.82;;;;;;;;;;5034867;28;20696;-60
2023/07/20 08:33:29;;;;;;;2.17;0.90;;;;;;;;;;5034636;28;20041;-60
2023/07/20 08:35:57;;;;;;;2.22;0.77;;;;;;;;;;5034601;28;20064;-60
2023/07/20 08:38:24;;;;;;;2.72;1.05;;;;;;;;;;5034549;28;20091;-60
2023/07/20 08:40:54;;;;;;;3.90;1.02;;;;;;;;;;5034617;28;20099;-60
2023/07/20 08:43:21;;;;;;;2.83;0.93;;;;;;;;;;5034850;28;20041;-60
2023/07/20 08:45:49;;;;;;;2.45;0.90;;;;;;;;;;5034463;28;20029;-60
2023/07/20 08:48:16;;;;;;;2.42;1.00;;;;;;;;;;5034468;28;20526;-60
2023/07/20 08:50:44;;;;;;;2.30;0.82;;;;;;;;;;5034509;28;20041;-60
2023/07/20 08:53:11;;;;;;;2.38;0.80;;;;;;;;;;5034420;28;20026;-60
2023/07/20 08:55:38;;;;;;;4.25;1.05;;;;;;;;;;5034217;28;20097;-60
2023/07/20 08:58:06;;;;;;;2.13;0.85;;;;;;;;;;5034354;28;20029;-60
2023/07/20 09:00:33;;;;;;;2.00;0.90;;;;;;;;;;5034357;28;20487;-60
2023/07/20 09:03:02;;;;;;;1.30;0.80;;;;;;;;;;5016443;28;20037;-60
2023/07/20 09:05:29;;;;;;;2.90;0.93;;;;;;;;;;5016220;28;20037;-60
2023/07/20 09:07:56;;;;;;;2.33;0.73;;;;;;;;;;5034156;28;20801;-60
2023/07/20 09:10:24;;;;;;;4.15;1.27;;;;;;;;;;5034149;28;20025;-60
2023/07/20 09:12:51;;;;;;;4.80;1.10;;;;;;;;;;5034074;28;20032;-60
2023/07/20 09:15:20;;;;;;;4.30;0.98;;;;;;;;;;5033387;28;20072;-60
2023/07/20 09:17:48;;;;;;;2.15;0.70;;;;;;;;;;5033967;28;20053;-60
2023/07/20 09:20:15;;;;;;;1.90;0.90;;;;;;;;;;5033953;28;20068;-60
2023/07/20 09:22:42;;;;;;;2.25;0.80;;;;;;;;;;5033869;28;20033;-60
2023/07/20 09:25:17;;;;;;;2.15;1.00;;;;;;;;;;5033794;28;20091;-60
2023/07/20 09:27:45;;;;;;;2.90;0.93;;;;;;;;;;5033700;28;20129;-60
2023/07/20 09:30:14;;;;;;;3.92;0.88;;;;;;;;;;5033688;28;20025;-60
2023/07/20 09:32:42;;;;;;;3.30;0.95;;;;;;;;;;5033504;28;20058;-60
2023/07/20 09:35:19;;;;;;;2.13;0.80;;;;;;;;;;5033616;28;20396;-60
2023/07/20 09:37:58;;;;;;;1.77;0.80;;;;;;;;;;5015798;28;20041;-60
2023/07/20 09:40:26;;;;;;;2.25;1.02;;;;;;;;;;5033542;28;20109;-60
2023/07/20 09:43:00;;;;;;;2.83;0.60;;;;;;;;;;5033532;28;20510;-60
2023/07/20 09:45:37;;;;;;;2.20;1.00;;;;;;;;;;5033384;28;20038;-60
2023/07/20 09:48:07;;;;;;;1.75;0.70;;;;;;;;;;5033401;28;20044;-60
2023/07/20 09:50:34;;;;;;;1.63;0.75;;;;;;;;;;5033279;28;20075;-60
2023/07/20 09:53:02;;;;;;;1.52;0.80;;;;;;;;;;5033351;28;20091;-60
2023/07/20 09:55:30;;;;;;;2.25;0.85;;;;;;;;;;5033155;28;20037;-60
2023/07/20 09:57:57;;;;;;;1.38;0.77;;;;;;;;;;5033264;28;20029;-60
2023/07/20 10:00:24;;;;;;;2.10;0.82;;;;;;;;;;5032950;28;20026;-60
2023/07/20 10:02:53;;;;;;;1.20;0.80;;;;;;;;;;5033176;28;20032;-60
2023/07/20 10:05:20;;;;;;;4.95;0.95;;;;;;;;;;5033018;28;20021;-60
2023/07/20 10:07:51;;;;;;;1.45;0.80;;;;;;;;;;5033016;28;20029;-60
2023/07/20 10:10:19;;;;;;;2.10;0.90;;;;;;;;;;5015194;28;20030;-60
2023/07/20 10:12:48;;;;;;;3.35;1.38;;;;;;;;;;5032789;28;20061;-60
2023/07/20 10:15:21;;;;;;;2.83;0.98;;;;;;;;;;5032570;28;20029;-60
2023/07/20 10:17:57;;;;;;;1.58;0.88;;;;;;;;;;5032809;28;20395;-60
2023/07/20 10:20:25;;;;;;;3.40;1.10;;;;;;;;;;5032806;28;20047;-60
2023/07/20 10:22:54;;;;;;;2.00;0.90;;;;;;;;;;5032768;28;20025;-60
2023/07/20 10:25:22;;;;;;;2.25;0.93;;;;;;;;;;5032473;28;20029;-61
2023/07/20 10:27:50;;;;;;;1.90;0.80;;;;;;;;;;5031745;28;20036;-60
2023/07/20 10:30:19;;;;;;;2.20;0.80;;;;;;;;;;5015049;28;20487;-60
2023/07/20 10:32:46;;;;;;;1.30;0.90;;;;;;;;;;5032236;28;20049;-60
2023/07/20 10:35:17;;;;;;;3.15;1.05;;;;;;;;;;5032328;28;20073;-60
2023/07/20 10:37:50;;;;;;;3.60;0.90;;;;;;;;;;5032523;28;20585;-60
2023/07/20 10:40:33;;;;;;;1.83;0.90;;;;;;;;;;5032456;28;20036;-60
2023/07/20 10:43:00;;;;;;;4.00;0.90;;;;;;;;;;5032411;28;20030;-60
2023/07/20 10:45:47;;;;;;;1.92;0.80;;;;;;;;;;5032240;28;20029;-60
2023/07/20 10:48:20;;;;;;;2.00;1.00;;;;;;;;;;5032041;28;20033;-60
2023/07/20 10:51:07;;;;;;;3.22;0.90;;;;;;;;;;5014456;28;20115;-60
2023/07/20 10:53:34;;;;;;;2.85;1.10;;;;;;;;;;5032033;28;20036;-60
2023/07/20 10:56:14;;;;;;;3.28;1.05;;;;;;;;;;5032223;28;20463;-60
2023/07/20 10:58:42;;;;;;;1.60;0.80;;;;;;;;;;5032160;28;20052;-60
2023/07/20 11:01:09;;;;;;;4.15;1.02;;;;;;;;;;5031908;28;20492;-60
2023/07/20 11:03:40;;;;;;;2.15;0.98;;;;;;;;;;5031875;28;20033;-60
2023/07/20 11:06:26;;;;;;;1.70;0.80;;;;;;;;;;5031952;28;20036;-60
2023/07/20 11:09:05;;;;;;;2.25;0.93;;;;;;;;;;5032020;28;20094;-60
2023/07/20 11:11:33;;;;;;;2.45;0.90;;;;;;;;;;5031970;28;20104;-60
2023/07/20 11:14:00;;;;;;;3.33;1.00;;;;;;;;;;5031780;28;20095;-60
2023/07/20 11:16:37;;;;;;;2.83;0.80;;;;;;;;;;5031874;28;20030;-60
2023/07/20 11:19:05;;;;;;;2.00;0.77;;;;;;;;;;5031852;28;20052;-60
2023/07/20 11:21:39;;;;;;;3.17;1.00;;;;;;;;;;5031817;28;20047;-60
2023/07/20 11:24:07;;;;;;;1.98;0.90;;;;;;;;;;5031650;28;20033;-60
2023/07/20 11:26:44;;;;;;;2.10;1.00;;;;;;;;;;5031725;28;20022;-60
2023/07/20 11:29:11;;;;;;;3.22;0.98;;;;;;;;;;5031639;28;20022;-60
2023/07/20 11:31:41;;;;;;;2.25;1.00;;;;;;;;;;5031610;28;20426;-60
2023/07/20 11:34:15;;;;;;;2.50;0.85;;;;;;;;;;5031495;28;20044;-60
2023/07/20 11:36:51;;;;;;;1.90;0.80;;;;;;;;;;5031488;28;20495;-60
2023/07/20 11:39:22;;;;;;;2.88;1.00;;;;;;;;;;5036580;28;20361;-60
2023/07/20 11:41:53;;;;;;;1.58;0.85;;;;;;;;;;5020361;28;20083;-60
2023/07/20 11:44:26;;;;;;;2.22;0.77;;;;;;;;;;5038233;28;20488;-60
2023/07/20 11:47:06;;;;;;;2.40;0.98;;;;;;;;;;5038093;28;20029;-60
2023/07/20 11:49:54;;;;;;;2.92;0.90;;;;;;;;;;5038024;28;20510;-60
2023/07/20 11:52:21;;;;;;;4.03;1.10;;;;;;;;;;5038082;28;20044;-60
2023/07/20 11:54:49;;;;;;;1.02;0.77;;;;;;;;;;5037790;28;20049;-60
2023/07/20 11:57:19;;;;;;;1.50;0.80;;;;;;;;;;5037681;28;20034;-60
2023/07/20 12:00:01;;;;;;;1.33;0.80;;;;;;;;;;5037916;28;20034;-60
2023/07/20 12:02:28;;;;;;;1.73;0.90;;;;;;;;;;5037934;28;20040;-60
2023/07/20 12:04:56;;;;;;;2.67;0.95;;;;;;;;;;5037820;28;20025;-60
2023/07/20 12:07:23;;;;;;;2.40;0.85;;;;;;;;;;5038018;28;20022;-60
2023/07/20 12:10:09;;;;;;;2.67;0.90;;;;;;;;;;5038012;28;20021;-60
2023/07/20 12:12:43;;;;;;;2.78;0.90;;;;;;;;;;5037970;28;20467;-60
2023/07/20 12:15:31;;;;;;;6.05;1.00;;;;;;;;;;5037724;28;20119;-60
2023/07/20 12:18:00;;;;;;;5.32;1.20;;;;;;;;;;5037437;28;20059;-60
2023/07/20 12:20:33;;;;;;;2.03;0.80;;;;;;;;;;5037011;28;20106;-61
2023/07/20 12:23:02;;;;;;;1.35;0.80;;;;;;;;;;5035593;28;20033;-60
2023/07/20 12:25:41;;;;;;;5.13;1.23;;;;;;;;;;5037833;28;20073;-60
2023/07/20 12:28:09;;;;;;;2.50;0.98;;;;;;;;;;5037713;28;20025;-60
2023/07/20 12:30:37;;;;;;;2.72;1.13;;;;;;;;;;5037599;28;20034;-60
2023/07/20 12:33:05;;;;;;;1.10;0.80;;;;;;;;;;5037237;28;20048;-61
2023/07/20 12:35:35;;;;;;;2.10;0.80;;;;;;;;;;5037193;28;20041;-60
2023/07/20 12:38:02;;;;;;;2.00;0.80;;;;;;;;;;5037649;28;20052;-60
2023/07/20 12:40:29;;;;;;;2.03;1.00;;;;;;;;;;5036904;28;20033;-60
2023/07/20 12:42:56;;;;;;;3.10;0.80;;;;;;;;;;5018405;28;20056;-61
2023/07/20 12:45:23;;;;;;;3.15;1.17;;;;;;;;;;5035943;28;20025;-61
2023/07/20 12:47:50;;;;;;;3.22;1.20;;;;;;;;;;5036184;28;20159;-60
2023/07/20 12:50:17;;;;;;;3.72;1.20;;;;;;;;;;5033403;28;20025;-60
2023/07/20 12:52:44;;;;;;;4.40;1.13;;;;;;;;;;5033520;28;20026;-60
2023/07/20 12:55:11;;;;;;;2.20;1.08;;;;;;;;;;5033511;28;20037;-60
2023/07/20 12:57:38;;;;;;;2.90;0.95;;;;;;;;;;5031035;28;20033;-60
2023/07/20 13:00:07;;;;;;;2.92;1.10;;;;;;;;;;5033026;28;20804;-60
2023/07/20 13:02:35;;;;;;;3.97;1.10;;;;;;;;;;5034063;28;20047;-60
2023/07/20 13:05:02;;;;;;;6.10;1.25;;;;;;;;;;5034014;28;20483;-60
2023/07/20 13:07:33;;;;;;;4.93;1.30;;;;;;;;;;5033885;28;20036;-60
2023/07/20 13:10:01;;;;;;;7.13;1.00;;;;;;;;;;5033820;28;20029;-60
2023/07/20 13:12:28;;;;;;;6.15;1.00;;;;;;;;;;5030874;28;20817;-61
2023/07/20 13:14:56;;;;;;;5.78;1.20;;;;;;;;;;5033269;28;20048;-60
2023/07/20 13:17:24;;;;;;;4.55;1.38;;;;;;;;;;5034098;28;20099;-60
2023/07/20 13:19:52;;;;;;;4.40;1.17;;;;;;;;;;5033029;28;20026;-61
2023/07/20 13:22:19;;;;;;;4.95;1.52;;;;;;;;;;5033711;28;20406;-60
2023/07/20 13:24:50;;;;;;;5.45;1.05;;;;;;;;;;5033424;28;20033;-60
2023/07/20 13:27:20;;;;;;;5.65;1.33;;;;;;;;;;5033577;28;20034;-60
2023/07/20 13:29:47;;;;;;;3.33;1.25;;;;;;;;;;5033648;28;20032;-60
2023/07/20 13:32:15;;;;;;;10.00;1.52;;;;;;;;;;5032373;28;20044;-61
2023/07/20 13:34:42;;;;;;;5.72;1.40;;;;;;;;;;5014572;28;20053;-60
2023/07/20 13:37:10;;;;;;;8.30;1.30;;;;;;;;;;5033337;28;20028;-60
2023/07/20 13:39:37;;;;;;;4.85;1.27;;;;;;;;;;5033452;28;20104;-60
2023/07/20 13:42:05;;;;;;;7.78;1.42;;;;;;;;;;5033451;28;20025;-60
2023/07/20 13:44:32;;;;;;;7.63;1.50;;;;;;;;;;5033428;28;20029;-60
2023/07/20 13:46:59;;;;;;;9.27;1.58;;;;;;;;;;5033436;28;20037;-60
2023/07/20 13:49:26;;;;;;;6.78;1.80;;;;;;;;;;5033496;28;20033;-60
2023/07/20 13:51:53;;;;;;;6.95;1.50;;;;;;;;;;5033460;28;20033;-60
2023/07/20 13:54:20;;;;;;;6.68;1.52;;;;;;;;;;5033262;28;20029;-60
2023/07/20 13:56:47;;;;;;;4.75;1.52;;;;;;;;;;5033347;28;20021;-60
2023/07/20 13:59:14;;;;;;;7.15;1.52;;;;;;;;;;5033312;28;20056;-60
2023/07/20 14:01:41;;;;;;;3.35;1.30;;;;;;;;;;5033149;28;20029;-60
2023/07/20 14:04:09;;;;;;;5.35;1.35;;;;;;;;;;5033132;28;20029;-60
2023/07/20 14:06:36;;;;;;;8.48;1.70;;;;;;;;;;5033186;28;20032;-60
2023/07/20 14:09:03;;;;;;;7.20;1.73;;;;;;;;;;5033137;28;20108;-60
2023/07/20 14:11:30;;;;;;;5.78;1.38;;;;;;;;;;5033072;28;20087;-60
2023/07/20 14:13:58;;;;;;;5.03;1.42;;;;;;;;;;5032927;28;20558;-60
2023/07/20 14:16:25;;;;;;;8.55;1.80;;;;;;;;;;5032971;28;20033;-60
2023/07/20 14:18:53;;;;;;;5.45;1.55;;;;;;;;;;5032928;28;20030;-60
2023/07/20 14:21:21;;;;;;;3.50;1.40;;;;;;;;;;5032917;28;20036;-60
2023/07/20 14:23:49;;;;;;;2.80;1.50;;;;;;;;;;5032776;28;20032;-60
2023/07/20 14:26:16;;;;;;;5.90;1.30;;;;;;;;;;5032805;28;20044;-60
2023/07/20 14:28:44;;;;;;;7.82;1.50;;;;;;;;;;5014881;28;20040;-60
2023/07/20 14:31:11;;;;;;;7.28;1.75;;;;;;;;;;5032746;28;20045;-60
2023/07/20 14:33:38;;;;;;;6.28;1.60;;;;;;;;;;5032316;28;20058;-60
2023/07/20 14:36:05;;;;;;;3.97;1.60;;;;;;;;;;5032540;28;20487;-60
2023/07/20 14:38:32;;;;;;;4.75;1.77;;;;;;;;;;5032543;28;20025;-60
2023/07/20 14:40:59;;;;;;;6.68;1.92;;;;;;;;;;5032514;28;20032;-60
2023/07/20 14:43:26;;;;;;;8.40;1.90;;;;;;;;;;5032401;28;20025;-60
2023/07/20 14:45:54;;;;;;;4.65;1.60;;;;;;;;;;5032442;28;20249;-60